sensor_id;sensor_type;location;lat;lon;timestamp;P1;durP1;ratioP1;P2;durP2;ratioP2
69703;SDS011;56967;43.538;-5.646;2022-07-17T00:02:06;25.40;;;14.88;;
69703;SDS011;56967;43.538;-5.646;2022-07-17T00:04:31;29.55;;;15.45;;
69703;SDS011;56967;43.538;-5.646;2022-07-17T00:06:56;26.17;;;15.27;;
69703;SDS011;56967;43.538;-5.646;2022-07-17T00:09:23;27.75;;;16.50;;
69703;SDS011;56967;43.538;-5.646;2022-07-17T00:11:48;31.58;;;16.73;;
69703;SDS011;56967;43.538;-5.646;2022-07-17T00:14:13;35.17;;;17.80;;
69703;SDS011;56967;43.538;-5.646;2022-07-17T00:16:39;33.85;;;17.15;;
69703;SDS011;56967;43.538;-5.646;2022-07-17T00:19:04;34.60;;;17.40;;
69703;SDS011;56967;43.538;-5.646;2022-07-17T00:21:29;31.58;;;17.45;;
69703;SDS011;56967;43.538;-5.646;2022-07-17T00:23:55;31.77;;;17.70;;
69703;SDS011;56967;43.538;-5.646;2022-07-17T00:26:20;31.30;;;16.70;;
69703;SDS011;56967;43.538;-5.646;2022-07-17T00:28:45;26.17;;;16.40;;
69703;SDS011;56967;43.538;-5.646;2022-07-17T00:31:11;22.77;;;14.02;;
69703;SDS011;56967;43.538;-5.646;2022-07-17T00:33:36;27.60;;;15.55;;
69703;SDS011;56967;43.538;-5.646;2022-07-17T00:36:02;23.67;;;13.85;;
69703;SDS011;56967;43.538;-5.646;2022-07-17T00:38:28;26.55;;;15.75;;
69703;SDS011;56967;43.538;-5.646;2022-07-17T00:40:54;32.63;;;16.98;;
69703;SDS011;56967;43.538;-5.646;2022-07-17T00:43:20;36.67;;;18.00;;
69703;SDS011;56967;43.538;-5.646;2022-07-17T00:45:45;28.23;;;17.00;;
69703;SDS011;56967;43.538;-5.646;2022-07-17T00:48:11;31.17;;;18.35;;
69703;SDS011;56967;43.538;-5.646;2022-07-17T00:50:40;29.60;;;17.20;;
69703;SDS011;56967;43.538;-5.646;2022-07-17T00:53:06;29.48;;;17.85;;
69703;SDS011;56967;43.538;-5.646;2022-07-17T00:55:32;32.92;;;16.50;;
69703;SDS011;56967;43.538;-5.646;2022-07-17T00:57:57;27.73;;;17.95;;
69703;SDS011;56967;43.538;-5.646;2022-07-17T01:00:25;30.75;;;17.80;;
69703;SDS011;56967;43.538;-5.646;2022-07-17T01:02:51;29.33;;;15.40;;
69703;SDS011;56967;43.538;-5.646;2022-07-17T01:05:17;32.72;;;17.08;;
69703;SDS011;56967;43.538;-5.646;2022-07-17T01:07:43;29.60;;;16.35;;
69703;SDS011;56967;43.538;-5.646;2022-07-17T01:10:09;26.10;;;14.98;;
69703;SDS011;56967;43.538;-5.646;2022-07-17T01:12:35;26.83;;;15.50;;
69703;SDS011;56967;43.538;-5.646;2022-07-17T01:15:00;28.85;;;17.38;;
69703;SDS011;56967;43.538;-5.646;2022-07-17T01:17:26;25.63;;;16.45;;
69703;SDS011;56967;43.538;-5.646;2022-07-17T01:19:51;24.55;;;15.05;;
69703;SDS011;56967;43.538;-5.646;2022-07-17T01:22:17;23.02;;;16.30;;
69703;SDS011;56967;43.538;-5.646;2022-07-17T01:24:42;24.80;;;16.42;;
69703;SDS011;56967;43.538;-5.646;2022-07-17T01:27:07;21.33;;;15.18;;
69703;SDS011;56967;43.538;-5.646;2022-07-17T01:29:35;23.02;;;14.20;;
69703;SDS011;56967;43.538;-5.646;2022-07-17T01:32:01;23.85;;;15.27;;
69703;SDS011;56967;43.538;-5.646;2022-07-17T01:34:26;20.42;;;14.90;;
69703;SDS011;56967;43.538;-5.646;2022-07-17T01:36:52;18.50;;;14.32;;
69703;SDS011;56967;43.538;-5.646;2022-07-17T01:39:17;24.40;;;16.20;;
69703;SDS011;56967;43.538;-5.646;2022-07-17T01:41:42;24.60;;;15.90;;
69703;SDS011;56967;43.538;-5.646;2022-07-17T01:44:08;27.15;;;14.98;;
69703;SDS011;56967;43.538;-5.646;2022-07-17T01:46:33;19.88;;;14.55;;
69703;SDS011;56967;43.538;-5.646;2022-07-17T01:48:59;22.85;;;14.77;;
69703;SDS011;56967;43.538;-5.646;2022-07-17T01:51:26;24.45;;;14.88;;
69703;SDS011;56967;43.538;-5.646;2022-07-17T01:53:51;26.75;;;15.35;;
69703;SDS011;56967;43.538;-5.646;2022-07-17T01:56:17;25.65;;;15.85;;
69703;SDS011;56967;43.538;-5.646;2022-07-17T01:58:42;31.13;;;16.80;;
69703;SDS011;56967;43.538;-5.646;2022-07-17T02:01:07;26.80;;;16.52;;
69703;SDS011;56967;43.538;-5.646;2022-07-17T02:03:33;27.90;;;15.48;;
69703;SDS011;56967;43.538;-5.646;2022-07-17T02:05:58;30.23;;;17.00;;
69703;SDS011;56967;43.538;-5.646;2022-07-17T02:08:23;27.50;;;17.30;;
69703;SDS011;56967;43.538;-5.646;2022-07-17T02:10:49;28.33;;;17.45;;
69703;SDS011;56967;43.538;-5.646;2022-07-17T02:13:14;25.90;;;17.40;;
69703;SDS011;56967;43.538;-5.646;2022-07-17T02:15:39;25.42;;;17.20;;
69703;SDS011;56967;43.538;-5.646;2022-07-17T02:18:05;32.28;;;17.23;;
69703;SDS011;56967;43.538;-5.646;2022-07-17T02:20:30;29.33;;;18.50;;
69703;SDS011;56967;43.538;-5.646;2022-07-17T02:22:56;36.78;;;19.40;;
69703;SDS011;56967;43.538;-5.646;2022-07-17T02:25:21;23.73;;;16.20;;
69703;SDS011;56967;43.538;-5.646;2022-07-17T02:27:46;28.57;;;19.60;;
69703;SDS011;56967;43.538;-5.646;2022-07-17T02:30:15;32.38;;;20.67;;
69703;SDS011;56967;43.538;-5.646;2022-07-17T02:32:41;27.98;;;18.38;;
69703;SDS011;56967;43.538;-5.646;2022-07-17T02:35:07;32.25;;;19.48;;
69703;SDS011;56967;43.538;-5.646;2022-07-17T02:37:33;28.15;;;19.45;;
69703;SDS011;56967;43.538;-5.646;2022-07-17T02:39:58;25.15;;;18.42;;
69703;SDS011;56967;43.538;-5.646;2022-07-17T02:42:27;34.97;;;18.75;;
69703;SDS011;56967;43.538;-5.646;2022-07-17T02:44:53;26.67;;;19.08;;
69703;SDS011;56967;43.538;-5.646;2022-07-17T02:47:26;28.08;;;18.10;;
69703;SDS011;56967;43.538;-5.646;2022-07-17T02:49:52;30.38;;;19.38;;
69703;SDS011;56967;43.538;-5.646;2022-07-17T02:52:18;25.25;;;17.58;;
69703;SDS011;56967;43.538;-5.646;2022-07-17T02:54:43;24.58;;;17.08;;
69703;SDS011;56967;43.538;-5.646;2022-07-17T02:57:09;26.60;;;15.60;;
69703;SDS011;56967;43.538;-5.646;2022-07-17T02:59:34;27.20;;;17.20;;
69703;SDS011;56967;43.538;-5.646;2022-07-17T03:02:00;31.02;;;19.17;;
69703;SDS011;56967;43.538;-5.646;2022-07-17T03:04:25;24.80;;;16.40;;
69703;SDS011;56967;43.538;-5.646;2022-07-17T03:06:51;28.88;;;18.88;;
69703;SDS011;56967;43.538;-5.646;2022-07-17T03:09:16;28.08;;;18.73;;
69703;SDS011;56967;43.538;-5.646;2022-07-17T03:11:42;30.10;;;19.95;;
69703;SDS011;56967;43.538;-5.646;2022-07-17T03:14:07;26.70;;;17.50;;
69703;SDS011;56967;43.538;-5.646;2022-07-17T03:16:32;23.70;;;16.45;;
69703;SDS011;56967;43.538;-5.646;2022-07-17T03:18:58;23.90;;;16.15;;
69703;SDS011;56967;43.538;-5.646;2022-07-17T03:21:23;27.63;;;18.30;;
69703;SDS011;56967;43.538;-5.646;2022-07-17T03:23:48;24.13;;;16.52;;
69703;SDS011;56967;43.538;-5.646;2022-07-17T03:26:14;22.70;;;15.88;;
69703;SDS011;56967;43.538;-5.646;2022-07-17T03:28:39;27.27;;;19.67;;
69703;SDS011;56967;43.538;-5.646;2022-07-17T03:31:04;32.43;;;19.63;;
69703;SDS011;56967;43.538;-5.646;2022-07-17T03:33:30;25.73;;;17.40;;
69703;SDS011;56967;43.538;-5.646;2022-07-17T03:35:55;22.48;;;15.85;;
69703;SDS011;56967;43.538;-5.646;2022-07-17T03:38:21;24.85;;;17.40;;
69703;SDS011;56967;43.538;-5.646;2022-07-17T03:40:46;24.48;;;16.98;;
69703;SDS011;56967;43.538;-5.646;2022-07-17T03:43:12;23.38;;;16.17;;
69703;SDS011;56967;43.538;-5.646;2022-07-17T03:45:38;24.05;;;16.33;;
69703;SDS011;56967;43.538;-5.646;2022-07-17T03:48:03;24.70;;;16.58;;
69703;SDS011;56967;43.538;-5.646;2022-07-17T03:50:28;24.73;;;16.13;;
69703;SDS011;56967;43.538;-5.646;2022-07-17T03:52:54;23.65;;;17.05;;
69703;SDS011;56967;43.538;-5.646;2022-07-17T03:55:19;27.52;;;18.20;;
69703;SDS011;56967;43.538;-5.646;2022-07-17T03:57:44;27.00;;;18.67;;
69703;SDS011;56967;43.538;-5.646;2022-07-17T04:00:10;26.15;;;18.85;;
69703;SDS011;56967;43.538;-5.646;2022-07-17T04:02:35;23.08;;;17.00;;
69703;SDS011;56967;43.538;-5.646;2022-07-17T04:05:01;26.75;;;18.08;;
69703;SDS011;56967;43.538;-5.646;2022-07-17T04:07:27;24.63;;;18.55;;
69703;SDS011;56967;43.538;-5.646;2022-07-17T04:09:55;26.33;;;17.73;;
69703;SDS011;56967;43.538;-5.646;2022-07-17T04:12:21;28.80;;;18.50;;
69703;SDS011;56967;43.538;-5.646;2022-07-17T04:14:47;30.38;;;20.33;;
69703;SDS011;56967;43.538;-5.646;2022-07-17T04:17:12;26.40;;;18.67;;
69703;SDS011;56967;43.538;-5.646;2022-07-17T04:19:37;21.63;;;15.48;;
69703;SDS011;56967;43.538;-5.646;2022-07-17T04:22:03;22.67;;;15.77;;
69703;SDS011;56967;43.538;-5.646;2022-07-17T04:24:28;24.27;;;17.58;;
69703;SDS011;56967;43.538;-5.646;2022-07-17T04:26:53;27.25;;;18.35;;
69703;SDS011;56967;43.538;-5.646;2022-07-17T04:29:19;24.83;;;19.00;;
69703;SDS011;56967;43.538;-5.646;2022-07-17T04:31:44;24.85;;;16.95;;
69703;SDS011;56967;43.538;-5.646;2022-07-17T04:34:09;24.77;;;17.67;;
69703;SDS011;56967;43.538;-5.646;2022-07-17T04:36:35;28.05;;;18.98;;
69703;SDS011;56967;43.538;-5.646;2022-07-17T04:39:00;25.98;;;18.63;;
69703;SDS011;56967;43.538;-5.646;2022-07-17T04:41:25;27.92;;;18.42;;
69703;SDS011;56967;43.538;-5.646;2022-07-17T04:43:51;26.17;;;19.17;;
69703;SDS011;56967;43.538;-5.646;2022-07-17T04:46:16;28.42;;;19.88;;
69703;SDS011;56967;43.538;-5.646;2022-07-17T04:48:41;29.35;;;20.20;;
69703;SDS011;56967;43.538;-5.646;2022-07-17T04:51:07;26.02;;;20.00;;
69703;SDS011;56967;43.538;-5.646;2022-07-17T04:53:32;27.92;;;20.65;;
69703;SDS011;56967;43.538;-5.646;2022-07-17T04:55:58;27.75;;;20.52;;
69703;SDS011;56967;43.538;-5.646;2022-07-17T04:58:24;29.55;;;20.90;;
69703;SDS011;56967;43.538;-5.646;2022-07-17T05:00:49;35.45;;;23.20;;
69703;SDS011;56967;43.538;-5.646;2022-07-17T05:03:15;32.33;;;21.30;;
69703;SDS011;56967;43.538;-5.646;2022-07-17T05:05:40;31.35;;;22.00;;
69703;SDS011;56967;43.538;-5.646;2022-07-17T05:08:05;38.15;;;23.25;;
69703;SDS011;56967;43.538;-5.646;2022-07-17T05:10:31;33.58;;;23.55;;
69703;SDS011;56967;43.538;-5.646;2022-07-17T05:12:56;32.38;;;22.85;;
69703;SDS011;56967;43.538;-5.646;2022-07-17T05:15:21;33.40;;;23.80;;
69703;SDS011;56967;43.538;-5.646;2022-07-17T05:17:47;35.53;;;22.77;;
69703;SDS011;56967;43.538;-5.646;2022-07-17T05:20:12;30.90;;;23.00;;
69703;SDS011;56967;43.538;-5.646;2022-07-17T05:22:37;33.33;;;22.65;;
69703;SDS011;56967;43.538;-5.646;2022-07-17T05:25:03;33.00;;;22.63;;
69703;SDS011;56967;43.538;-5.646;2022-07-17T05:27:28;32.70;;;22.35;;
69703;SDS011;56967;43.538;-5.646;2022-07-17T05:29:54;28.30;;;20.30;;
69703;SDS011;56967;43.538;-5.646;2022-07-17T05:32:19;25.38;;;19.40;;
69703;SDS011;56967;43.538;-5.646;2022-07-17T05:34:45;28.13;;;21.40;;
69703;SDS011;56967;43.538;-5.646;2022-07-17T05:37:10;28.48;;;21.23;;
69703;SDS011;56967;43.538;-5.646;2022-07-17T05:39:35;27.35;;;19.98;;
69703;SDS011;56967;43.538;-5.646;2022-07-17T05:42:01;32.22;;;20.02;;
69703;SDS011;56967;43.538;-5.646;2022-07-17T05:44:26;29.20;;;18.25;;
69703;SDS011;56967;43.538;-5.646;2022-07-17T05:46:52;26.02;;;19.08;;
69703;SDS011;56967;43.538;-5.646;2022-07-17T05:49:17;23.48;;;16.77;;
69703;SDS011;56967;43.538;-5.646;2022-07-17T05:51:43;33.72;;;19.88;;
69703;SDS011;56967;43.538;-5.646;2022-07-17T05:54:08;21.43;;;16.57;;
69703;SDS011;56967;43.538;-5.646;2022-07-17T05:56:33;22.85;;;16.83;;
69703;SDS011;56967;43.538;-5.646;2022-07-17T05:58:59;23.23;;;17.02;;
69703;SDS011;56967;43.538;-5.646;2022-07-17T06:01:24;25.77;;;15.65;;
69703;SDS011;56967;43.538;-5.646;2022-07-17T06:03:49;25.83;;;15.57;;
69703;SDS011;56967;43.538;-5.646;2022-07-17T06:06:15;23.63;;;13.80;;
69703;SDS011;56967;43.538;-5.646;2022-07-17T06:08:40;20.00;;;13.15;;
69703;SDS011;56967;43.538;-5.646;2022-07-17T06:11:06;20.45;;;16.20;;
69703;SDS011;56967;43.538;-5.646;2022-07-17T06:13:31;20.08;;;15.15;;
69703;SDS011;56967;43.538;-5.646;2022-07-17T06:15:57;23.25;;;13.82;;
69703;SDS011;56967;43.538;-5.646;2022-07-17T06:18:24;17.70;;;14.02;;
69703;SDS011;56967;43.538;-5.646;2022-07-17T06:20:49;19.60;;;15.30;;
69703;SDS011;56967;43.538;-5.646;2022-07-17T06:23:15;19.10;;;15.30;;
69703;SDS011;56967;43.538;-5.646;2022-07-17T06:25:40;17.40;;;13.90;;
69703;SDS011;56967;43.538;-5.646;2022-07-17T06:28:05;20.10;;;16.10;;
69703;SDS011;56967;43.538;-5.646;2022-07-17T06:30:31;18.60;;;15.55;;
69703;SDS011;56967;43.538;-5.646;2022-07-17T06:32:56;20.08;;;13.70;;
69703;SDS011;56967;43.538;-5.646;2022-07-17T06:35:22;24.23;;;11.80;;
69703;SDS011;56967;43.538;-5.646;2022-07-17T06:37:47;18.23;;;12.40;;
69703;SDS011;56967;43.538;-5.646;2022-07-17T06:40:12;16.57;;;9.43;;
69703;SDS011;56967;43.538;-5.646;2022-07-17T06:42:38;17.97;;;10.40;;
69703;SDS011;56967;43.538;-5.646;2022-07-17T06:45:03;16.13;;;9.47;;
69703;SDS011;56967;43.538;-5.646;2022-07-17T06:47:29;23.48;;;9.85;;
69703;SDS011;56967;43.538;-5.646;2022-07-17T06:49:54;22.03;;;9.93;;
69703;SDS011;56967;43.538;-5.646;2022-07-17T06:52:19;17.20;;;8.77;;
69703;SDS011;56967;43.538;-5.646;2022-07-17T06:54:45;15.60;;;8.53;;
69703;SDS011;56967;43.538;-5.646;2022-07-17T06:57:10;13.37;;;8.63;;
69703;SDS011;56967;43.538;-5.646;2022-07-17T06:59:35;11.97;;;8.77;;
69703;SDS011;56967;43.538;-5.646;2022-07-17T07:02:01;15.63;;;7.87;;
69703;SDS011;56967;43.538;-5.646;2022-07-17T07:04:26;18.43;;;9.40;;
69703;SDS011;56967;43.538;-5.646;2022-07-17T07:06:51;15.90;;;7.17;;
69703;SDS011;56967;43.538;-5.646;2022-07-17T07:09:17;15.40;;;7.90;;
69703;SDS011;56967;43.538;-5.646;2022-07-17T07:11:42;10.82;;;7.55;;
69703;SDS011;56967;43.538;-5.646;2022-07-17T07:14:07;15.77;;;7.55;;
69703;SDS011;56967;43.538;-5.646;2022-07-17T07:16:33;13.60;;;7.80;;
69703;SDS011;56967;43.538;-5.646;2022-07-17T07:18:59;13.60;;;8.00;;
69703;SDS011;56967;43.538;-5.646;2022-07-17T07:21:24;13.47;;;8.23;;
69703;SDS011;56967;43.538;-5.646;2022-07-17T07:23:51;12.35;;;8.23;;
69703;SDS011;56967;43.538;-5.646;2022-07-17T07:26:16;15.13;;;9.38;;
69703;SDS011;56967;43.538;-5.646;2022-07-17T07:28:42;17.83;;;10.00;;
69703;SDS011;56967;43.538;-5.646;2022-07-17T07:31:07;16.50;;;10.60;;
69703;SDS011;56967;43.538;-5.646;2022-07-17T07:33:32;19.02;;;10.93;;
69703;SDS011;56967;43.538;-5.646;2022-07-17T07:35:58;16.80;;;11.70;;
69703;SDS011;56967;43.538;-5.646;2022-07-17T07:38:24;18.52;;;11.90;;
69703;SDS011;56967;43.538;-5.646;2022-07-17T07:40:49;16.87;;;12.07;;
69703;SDS011;56967;43.538;-5.646;2022-07-17T07:43:15;19.63;;;12.13;;
69703;SDS011;56967;43.538;-5.646;2022-07-17T07:45:40;21.40;;;13.00;;
69703;SDS011;56967;43.538;-5.646;2022-07-17T07:48:05;20.53;;;13.00;;
69703;SDS011;56967;43.538;-5.646;2022-07-17T07:50:31;21.47;;;11.80;;
69703;SDS011;56967;43.538;-5.646;2022-07-17T07:52:56;18.80;;;13.63;;
69703;SDS011;56967;43.538;-5.646;2022-07-17T07:55:21;21.30;;;14.73;;
69703;SDS011;56967;43.538;-5.646;2022-07-17T07:58:00;23.17;;;14.98;;
69703;SDS011;56967;43.538;-5.646;2022-07-17T08:00:26;27.17;;;16.25;;
69703;SDS011;56967;43.538;-5.646;2022-07-17T08:02:51;24.53;;;15.53;;
69703;SDS011;56967;43.538;-5.646;2022-07-17T08:05:17;24.58;;;15.10;;
69703;SDS011;56967;43.538;-5.646;2022-07-17T08:07:42;19.88;;;15.18;;
69703;SDS011;56967;43.538;-5.646;2022-07-17T08:10:07;22.77;;;16.70;;
69703;SDS011;56967;43.538;-5.646;2022-07-17T08:12:33;22.70;;;16.80;;
69703;SDS011;56967;43.538;-5.646;2022-07-17T08:14:58;23.43;;;17.77;;
69703;SDS011;56967;43.538;-5.646;2022-07-17T08:17:24;22.08;;;15.27;;
69703;SDS011;56967;43.538;-5.646;2022-07-17T08:19:49;21.13;;;17.27;;
69703;SDS011;56967;43.538;-5.646;2022-07-17T08:22:14;20.07;;;18.07;;
69703;SDS011;56967;43.538;-5.646;2022-07-17T08:24:40;21.90;;;19.48;;
69703;SDS011;56967;43.538;-5.646;2022-07-17T08:27:05;22.43;;;17.57;;
69703;SDS011;56967;43.538;-5.646;2022-07-17T08:29:30;22.93;;;20.60;;
69703;SDS011;56967;43.538;-5.646;2022-07-17T08:31:56;24.50;;;21.92;;
69703;SDS011;56967;43.538;-5.646;2022-07-17T08:34:21;26.47;;;24.07;;
69703;SDS011;56967;43.538;-5.646;2022-07-17T08:36:46;27.20;;;24.60;;
69703;SDS011;56967;43.538;-5.646;2022-07-17T08:39:12;26.65;;;23.83;;
69703;SDS011;56967;43.538;-5.646;2022-07-17T08:41:37;28.37;;;24.03;;
69703;SDS011;56967;43.538;-5.646;2022-07-17T08:44:04;26.92;;;24.27;;
69703;SDS011;56967;43.538;-5.646;2022-07-17T08:46:29;36.88;;;33.88;;
69703;SDS011;56967;43.538;-5.646;2022-07-17T08:48:56;33.30;;;30.25;;
69703;SDS011;56967;43.538;-5.646;2022-07-17T08:51:24;30.20;;;27.50;;
69703;SDS011;56967;43.538;-5.646;2022-07-17T08:53:49;34.72;;;31.67;;
69703;SDS011;56967;43.538;-5.646;2022-07-17T08:56:15;36.30;;;33.07;;
69703;SDS011;56967;43.538;-5.646;2022-07-17T08:58:40;40.27;;;36.90;;
69703;SDS011;56967;43.538;-5.646;2022-07-17T09:01:05;44.50;;;40.87;;
69703;SDS011;56967;43.538;-5.646;2022-07-17T09:03:31;54.23;;;50.23;;
69703;SDS011;56967;43.538;-5.646;2022-07-17T09:05:57;56.95;;;52.53;;
69703;SDS011;56967;43.538;-5.646;2022-07-17T09:08:23;52.93;;;48.57;;
69703;SDS011;56967;43.538;-5.646;2022-07-17T09:10:50;54.65;;;50.63;;
69703;SDS011;56967;43.538;-5.646;2022-07-17T09:13:21;61.15;;;56.22;;
69703;SDS011;56967;43.538;-5.646;2022-07-17T09:15:47;61.47;;;56.97;;
69703;SDS011;56967;43.538;-5.646;2022-07-17T09:18:13;80.65;;;74.82;;
69703;SDS011;56967;43.538;-5.646;2022-07-17T09:21:15;1999.90;;;999.90;;
69703;SDS011;56967;43.538;-5.646;2022-07-17T09:23:30;1999.90;;;999.90;;
69703;SDS011;56967;43.538;-5.646;2022-07-17T09:25:56;1999.90;;;999.90;;
69703;SDS011;56967;43.538;-5.646;2022-07-17T09:28:22;1999.90;;;999.90;;
69703;SDS011;56967;43.538;-5.646;2022-07-17T09:30:48;1999.90;;;999.90;;
69703;SDS011;56967;43.538;-5.646;2022-07-17T09:33:16;1999.90;;;999.90;;
69703;SDS011;56967;43.538;-5.646;2022-07-17T09:35:49;1999.90;;;999.90;;
69703;SDS011;56967;43.538;-5.646;2022-07-17T09:38:31;106.80;;;99.40;;
69703;SDS011;56967;43.538;-5.646;2022-07-17T09:41:04;49.22;;;45.35;;
69703;SDS011;56967;43.538;-5.646;2022-07-17T09:46:05;51.03;;;46.97;;
69703;SDS011;56967;43.538;-5.646;2022-07-17T09:48:32;43.97;;;40.33;;
69703;SDS011;56967;43.538;-5.646;2022-07-17T09:50:57;47.28;;;43.40;;
69703;SDS011;56967;43.538;-5.646;2022-07-17T09:53:22;43.78;;;40.17;;
69703;SDS011;56967;43.538;-5.646;2022-07-17T09:55:48;33.40;;;30.63;;
69703;SDS011;56967;43.538;-5.646;2022-07-17T09:58:16;21.17;;;14.73;;
69703;SDS011;56967;43.538;-5.646;2022-07-17T10:00:44;12.70;;;9.07;;
69703;SDS011;56967;43.538;-5.646;2022-07-17T10:03:09;12.25;;;8.77;;
69703;SDS011;56967;43.538;-5.646;2022-07-17T10:05:35;14.18;;;8.90;;
69703;SDS011;56967;43.538;-5.646;2022-07-17T10:08:00;13.98;;;9.32;;
69703;SDS011;56967;43.538;-5.646;2022-07-17T10:10:26;12.77;;;9.25;;
69703;SDS011;56967;43.538;-5.646;2022-07-17T10:12:51;14.02;;;8.45;;
69703;SDS011;56967;43.538;-5.646;2022-07-17T10:15:17;12.13;;;8.60;;
69703;SDS011;56967;43.538;-5.646;2022-07-17T10:17:45;14.05;;;8.43;;
69703;SDS011;56967;43.538;-5.646;2022-07-17T10:20:10;16.70;;;9.05;;
69703;SDS011;56967;43.538;-5.646;2022-07-17T10:22:40;13.93;;;8.70;;
69703;SDS011;56967;43.538;-5.646;2022-07-17T10:25:06;9.93;;;7.97;;
69703;SDS011;56967;43.538;-5.646;2022-07-17T10:27:35;15.23;;;9.45;;
69703;SDS011;56967;43.538;-5.646;2022-07-17T10:30:02;16.33;;;9.73;;
69703;SDS011;56967;43.538;-5.646;2022-07-17T10:32:28;15.25;;;9.40;;
69703;SDS011;56967;43.538;-5.646;2022-07-17T10:34:57;15.02;;;9.88;;
69703;SDS011;56967;43.538;-5.646;2022-07-17T10:40:03;16.83;;;9.68;;
69703;SDS011;56967;43.538;-5.646;2022-07-17T10:47:47;13.85;;;9.38;;
69703;SDS011;56967;43.538;-5.646;2022-07-17T10:50:12;13.38;;;9.35;;
69703;SDS011;56967;43.538;-5.646;2022-07-17T10:52:38;16.13;;;10.13;;
69703;SDS011;56967;43.538;-5.646;2022-07-17T10:55:04;15.73;;;10.13;;
69703;SDS011;56967;43.538;-5.646;2022-07-17T10:57:33;13.45;;;9.30;;
69703;SDS011;56967;43.538;-5.646;2022-07-17T10:59:58;17.77;;;9.65;;
69703;SDS011;56967;43.538;-5.646;2022-07-17T11:02:27;16.33;;;9.35;;
69703;SDS011;56967;43.538;-5.646;2022-07-17T11:04:53;13.93;;;9.20;;
69703;SDS011;56967;43.538;-5.646;2022-07-17T11:07:19;13.00;;;9.03;;
69703;SDS011;56967;43.538;-5.646;2022-07-17T11:09:47;15.77;;;10.23;;
69703;SDS011;56967;43.538;-5.646;2022-07-17T11:12:13;15.77;;;11.13;;
69703;SDS011;56967;43.538;-5.646;2022-07-17T11:14:38;15.37;;;10.13;;
69703;SDS011;56967;43.538;-5.646;2022-07-17T11:17:03;16.95;;;11.20;;
69703;SDS011;56967;43.538;-5.646;2022-07-17T11:19:30;16.63;;;10.93;;
69703;SDS011;56967;43.538;-5.646;2022-07-17T11:21:56;19.83;;;12.52;;
69703;SDS011;56967;43.538;-5.646;2022-07-17T11:24:22;18.55;;;12.77;;
69703;SDS011;56967;43.538;-5.646;2022-07-17T11:26:49;19.45;;;12.43;;
69703;SDS011;56967;43.538;-5.646;2022-07-17T11:29:15;21.88;;;14.10;;
69703;SDS011;56967;43.538;-5.646;2022-07-17T11:31:40;22.50;;;14.57;;
69703;SDS011;56967;43.538;-5.646;2022-07-17T11:34:06;26.27;;;14.60;;
69703;SDS011;56967;43.538;-5.646;2022-07-17T11:36:35;26.17;;;14.10;;
69703;SDS011;56967;43.538;-5.646;2022-07-17T11:39:08;21.27;;;13.02;;
69703;SDS011;56967;43.538;-5.646;2022-07-17T11:41:45;24.27;;;14.13;;
69703;SDS011;56967;43.538;-5.646;2022-07-17T11:44:15;24.92;;;13.85;;
69703;SDS011;56967;43.538;-5.646;2022-07-17T11:46:41;18.17;;;12.77;;
69703;SDS011;56967;43.538;-5.646;2022-07-17T11:49:08;23.35;;;14.00;;
69703;SDS011;56967;43.538;-5.646;2022-07-17T11:51:34;22.25;;;12.98;;
69703;SDS011;56967;43.538;-5.646;2022-07-17T11:54:07;15.73;;;11.95;;
69703;SDS011;56967;43.538;-5.646;2022-07-17T11:56:33;19.02;;;12.30;;
69703;SDS011;56967;43.538;-5.646;2022-07-17T11:58:59;23.48;;;13.43;;
69703;SDS011;56967;43.538;-5.646;2022-07-17T12:01:27;26.00;;;14.55;;
69703;SDS011;56967;43.538;-5.646;2022-07-17T12:03:56;27.50;;;16.20;;
69703;SDS011;56967;43.538;-5.646;2022-07-17T12:06:25;25.40;;;14.85;;
69703;SDS011;56967;43.538;-5.646;2022-07-17T12:08:51;28.08;;;15.02;;
69703;SDS011;56967;43.538;-5.646;2022-07-17T12:11:17;22.83;;;15.82;;
69703;SDS011;56967;43.538;-5.646;2022-07-17T12:13:43;27.25;;;16.80;;
69703;SDS011;56967;43.538;-5.646;2022-07-17T12:19:11;27.13;;;16.63;;
69703;SDS011;56967;43.538;-5.646;2022-07-17T12:24:17;24.80;;;15.85;;
69703;SDS011;56967;43.538;-5.646;2022-07-17T12:26:43;25.95;;;18.75;;
69703;SDS011;56967;43.538;-5.646;2022-07-17T12:29:08;34.43;;;19.73;;
69703;SDS011;56967;43.538;-5.646;2022-07-17T12:31:34;37.47;;;22.98;;
69703;SDS011;56967;43.538;-5.646;2022-07-17T12:33:59;35.15;;;27.10;;
69703;SDS011;56967;43.538;-5.646;2022-07-17T12:36:24;38.22;;;26.90;;
69703;SDS011;56967;43.538;-5.646;2022-07-17T12:38:50;38.72;;;27.55;;
69703;SDS011;56967;43.538;-5.646;2022-07-17T12:41:15;35.20;;;24.98;;
69703;SDS011;56967;43.538;-5.646;2022-07-17T12:43:41;40.22;;;28.70;;
69703;SDS011;56967;43.538;-5.646;2022-07-17T12:46:06;37.58;;;26.52;;
69703;SDS011;56967;43.538;-5.646;2022-07-17T12:48:32;32.17;;;23.08;;
69703;SDS011;56967;43.538;-5.646;2022-07-17T12:50:57;34.70;;;25.13;;
69703;SDS011;56967;43.538;-5.646;2022-07-17T12:53:23;30.60;;;21.77;;
69703;SDS011;56967;43.538;-5.646;2022-07-17T12:55:48;30.65;;;21.38;;
69703;SDS011;56967;43.538;-5.646;2022-07-17T12:58:13;27.92;;;19.13;;
69703;SDS011;56967;43.538;-5.646;2022-07-17T13:00:39;34.63;;;26.08;;
69703;SDS011;56967;43.538;-5.646;2022-07-17T13:03:05;27.77;;;21.00;;
69703;SDS011;56967;43.538;-5.646;2022-07-17T13:05:30;23.67;;;17.17;;
69703;SDS011;56967;43.538;-5.646;2022-07-17T13:07:55;24.88;;;18.88;;
69703;SDS011;56967;43.538;-5.646;2022-07-17T13:10:21;32.97;;;23.90;;
69703;SDS011;56967;43.538;-5.646;2022-07-17T13:12:47;26.05;;;18.17;;
69703;SDS011;56967;43.538;-5.646;2022-07-17T13:15:12;27.97;;;20.50;;
69703;SDS011;56967;43.538;-5.646;2022-07-17T13:17:38;35.92;;;25.80;;
69703;SDS011;56967;43.538;-5.646;2022-07-17T13:20:03;34.45;;;25.33;;
69703;SDS011;56967;43.538;-5.646;2022-07-17T13:22:29;33.28;;;24.45;;
69703;SDS011;56967;43.538;-5.646;2022-07-17T13:24:55;35.70;;;23.25;;
69703;SDS011;56967;43.538;-5.646;2022-07-17T13:27:20;31.57;;;22.90;;
69703;SDS011;56967;43.538;-5.646;2022-07-17T13:29:45;33.90;;;23.30;;
69703;SDS011;56967;43.538;-5.646;2022-07-17T13:32:11;32.42;;;23.20;;
69703;SDS011;56967;43.538;-5.646;2022-07-17T13:34:37;34.25;;;23.27;;
69703;SDS011;56967;43.538;-5.646;2022-07-17T13:37:02;32.33;;;23.00;;
69703;SDS011;56967;43.538;-5.646;2022-07-17T13:39:27;34.30;;;22.73;;
69703;SDS011;56967;43.538;-5.646;2022-07-17T13:41:53;34.15;;;23.30;;
69703;SDS011;56967;43.538;-5.646;2022-07-17T13:44:18;28.52;;;22.00;;
69703;SDS011;56967;43.538;-5.646;2022-07-17T13:46:44;33.77;;;22.50;;
69703;SDS011;56967;43.538;-5.646;2022-07-17T13:49:11;29.27;;;21.90;;
69703;SDS011;56967;43.538;-5.646;2022-07-17T13:51:37;28.90;;;21.90;;
69703;SDS011;56967;43.538;-5.646;2022-07-17T13:54:04;32.80;;;21.38;;
69703;SDS011;56967;43.538;-5.646;2022-07-17T13:56:30;32.00;;;22.05;;
69703;SDS011;56967;43.538;-5.646;2022-07-17T13:58:55;32.58;;;22.00;;
69703;SDS011;56967;43.538;-5.646;2022-07-17T14:01:21;30.52;;;21.17;;
69703;SDS011;56967;43.538;-5.646;2022-07-17T14:03:46;30.20;;;20.93;;
69703;SDS011;56967;43.538;-5.646;2022-07-17T14:06:11;33.55;;;21.10;;
69703;SDS011;56967;43.538;-5.646;2022-07-17T14:08:37;30.83;;;19.93;;
69703;SDS011;56967;43.538;-5.646;2022-07-17T14:11:02;29.23;;;19.30;;
69703;SDS011;56967;43.538;-5.646;2022-07-17T14:13:28;29.23;;;18.75;;
69703;SDS011;56967;43.538;-5.646;2022-07-17T14:15:53;27.90;;;18.52;;
69703;SDS011;56967;43.538;-5.646;2022-07-17T14:18:19;28.33;;;18.33;;